General Aviation Weather

Text Reports

Enter one or more of the following location identifiers separated by a space:

Zip Code, Four-Character ICAO or Three-Character IATA airport codes.

METAR - Aviation Routine Weather Report
KTPL - Temple, Texas
Updated at 4:35 PM GMT on August 01, 2014 (11:35 AM CDT):
METAR KTPL 011635Z AUTO 33008KT 10SM SCT028 OVC038 27/17 A3003 RMK AO1
TAF - Terminal Area Forecast
KTPL - Temple, Texas
Updated at 4:35 PM GMT on August 01, 2014 (11:35 AM CDT):
No TAF is currently available for this location.
Decoded:
No decoded TAF is available.
PIREP - Pilot Weather Report
KTPL - Temple, Texas
Updated at 4:35 PM GMT on August 01, 2014 (11:35 AM CDT):
No PIREP is currently available for this location.
AIRMET - Airmens Meteorological Information
KTPL - Temple, Texas
Updated at 4:35 PM GMT on August 01, 2014 (11:35 AM CDT):
No AIRMET is currently available for this location.
SIGMET - Significant Meteorological Information
KTPL - Temple, Texas
Updated at 4:35 PM GMT on August 01, 2014 (11:35 AM CDT):
No SIGMET is currently available for this location.
NOTAM - Notice to Airmen
KTPL - Temple, Texas
Updated at 4:35 PM GMT on August 01, 2014 (11:35 AM CDT):
No NOTAM is currently available for this location.
Forecast Area
KTPL - Temple, Texas
Updated at 4:35 PM GMT on August 01, 2014 (11:35 AM CDT):
No NOTAM is currently available for this location.
Aviation Weather Maps